sensor_id;sensor_type;location;lat;lon;timestamp;P1;durP1;ratioP1;P2;durP2;ratioP2
19863;SDS011;10094;48.820;9.226;2023-02-28T00:05:33;5.03;;;2.53;;
19863;SDS011;10094;48.820;9.226;2023-02-28T00:12:15;4.38;;;2.97;;
19863;SDS011;10094;48.820;9.226;2023-02-28T00:18:57;4.45;;;2.85;;
19863;SDS011;10094;48.820;9.226;2023-02-28T00:25:40;5.43;;;3.60;;
19863;SDS011;10094;48.820;9.226;2023-02-28T00:32:22;7.40;;;3.60;;
19863;SDS011;10094;48.820;9.226;2023-02-28T00:39:04;7.78;;;3.60;;
19863;SDS011;10094;48.820;9.226;2023-02-28T00:45:47;8.73;;;3.30;;
19863;SDS011;10094;48.820;9.226;2023-02-28T00:52:29;6.07;;;3.53;;
19863;SDS011;10094;48.820;9.226;2023-02-28T00:59:12;3.72;;;2.95;;
19863;SDS011;10094;48.820;9.226;2023-02-28T01:05:55;6.97;;;3.20;;
19863;SDS011;10094;48.820;9.226;2023-02-28T01:12:38;6.63;;;3.40;;
19863;SDS011;10094;48.820;9.226;2023-02-28T01:19:20;5.45;;;3.20;;
19863;SDS011;10094;48.820;9.226;2023-02-28T01:26:04;5.07;;;3.22;;
19863;SDS011;10094;48.820;9.226;2023-02-28T01:32:47;4.25;;;3.05;;
19863;SDS011;10094;48.820;9.226;2023-02-28T01:39:30;7.03;;;3.25;;
19863;SDS011;10094;48.820;9.226;2023-02-28T01:46:12;3.90;;;3.50;;
19863;SDS011;10094;48.820;9.226;2023-02-28T01:52:56;4.90;;;3.50;;
19863;SDS011;10094;48.820;9.226;2023-02-28T02:06:29;8.60;;;4.25;;
19863;SDS011;10094;48.820;9.226;2023-02-28T02:13:34;5.20;;;4.13;;
19863;SDS011;10094;48.820;9.226;2023-02-28T02:21:01;5.95;;;4.50;;
19863;SDS011;10094;48.820;9.226;2023-02-28T02:35:24;7.97;;;4.43;;
19863;SDS011;10094;48.820;9.226;2023-02-28T02:42:27;4.97;;;3.85;;
19863;SDS011;10094;48.820;9.226;2023-02-28T02:49:19;4.95;;;3.88;;
19863;SDS011;10094;48.820;9.226;2023-02-28T02:56:20;4.70;;;3.50;;
19863;SDS011;10094;48.820;9.226;2023-02-28T03:03:05;5.45;;;4.22;;
19863;SDS011;10094;48.820;9.226;2023-02-28T03:09:51;5.68;;;4.10;;
19863;SDS011;10094;48.820;9.226;2023-02-28T03:23:56;6.78;;;3.70;;
19863;SDS011;10094;48.820;9.226;2023-02-28T03:31:07;4.68;;;3.63;;
19863;SDS011;10094;48.820;9.226;2023-02-28T03:38:00;4.90;;;4.10;;
19863;SDS011;10094;48.820;9.226;2023-02-28T03:44:50;5.53;;;4.18;;
19863;SDS011;10094;48.820;9.226;2023-02-28T03:51:42;7.32;;;4.45;;
19863;SDS011;10094;48.820;9.226;2023-02-28T04:05:28;5.88;;;4.60;;
19863;SDS011;10094;48.820;9.226;2023-02-28T04:12:11;7.15;;;4.80;;
19863;SDS011;10094;48.820;9.226;2023-02-28T04:18:54;7.55;;;4.30;;
19863;SDS011;10094;48.820;9.226;2023-02-28T04:25:43;6.18;;;4.18;;
19863;SDS011;10094;48.820;9.226;2023-02-28T04:32:25;7.00;;;4.00;;
19863;SDS011;10094;48.820;9.226;2023-02-28T04:39:08;5.22;;;4.55;;
19863;SDS011;10094;48.820;9.226;2023-02-28T04:45:51;6.28;;;4.15;;
19863;SDS011;10094;48.820;9.226;2023-02-28T04:52:33;6.53;;;4.47;;
19863;SDS011;10094;48.820;9.226;2023-02-28T04:59:16;7.80;;;4.82;;
19863;SDS011;10094;48.820;9.226;2023-02-28T05:05:59;7.72;;;4.65;;
19863;SDS011;10094;48.820;9.226;2023-02-28T05:12:41;5.82;;;4.63;;
19863;SDS011;10094;48.820;9.226;2023-02-28T05:19:23;6.22;;;4.78;;
19863;SDS011;10094;48.820;9.226;2023-02-28T05:26:05;6.72;;;4.78;;
19863;SDS011;10094;48.820;9.226;2023-02-28T05:32:49;7.32;;;5.00;;
19863;SDS011;10094;48.820;9.226;2023-02-28T05:39:33;5.22;;;4.65;;
19863;SDS011;10094;48.820;9.226;2023-02-28T05:46:15;7.20;;;4.82;;
19863;SDS011;10094;48.820;9.226;2023-02-28T05:52:58;8.82;;;5.38;;
19863;SDS011;10094;48.820;9.226;2023-02-28T05:59:40;9.60;;;4.97;;
19863;SDS011;10094;48.820;9.226;2023-02-28T06:06:23;10.43;;;5.35;;
19863;SDS011;10094;48.820;9.226;2023-02-28T06:13:05;8.80;;;5.47;;
19863;SDS011;10094;48.820;9.226;2023-02-28T06:19:47;7.35;;;5.10;;
19863;SDS011;10094;48.820;9.226;2023-02-28T06:26:30;7.35;;;5.10;;
19863;SDS011;10094;48.820;9.226;2023-02-28T06:33:12;9.80;;;5.30;;
19863;SDS011;10094;48.820;9.226;2023-02-28T06:39:55;10.23;;;5.82;;
19863;SDS011;10094;48.820;9.226;2023-02-28T06:46:38;7.82;;;5.53;;
19863;SDS011;10094;48.820;9.226;2023-02-28T06:53:25;9.80;;;5.47;;
19863;SDS011;10094;48.820;9.226;2023-02-28T07:00:08;7.78;;;5.75;;
19863;SDS011;10094;48.820;9.226;2023-02-28T07:06:51;8.48;;;5.78;;
19863;SDS011;10094;48.820;9.226;2023-02-28T07:13:34;12.45;;;5.78;;
19863;SDS011;10094;48.820;9.226;2023-02-28T07:20:16;10.32;;;5.47;;
19863;SDS011;10094;48.820;9.226;2023-02-28T07:26:59;8.32;;;5.47;;
19863;SDS011;10094;48.820;9.226;2023-02-28T07:33:42;8.38;;;5.75;;
19863;SDS011;10094;48.820;9.226;2023-02-28T07:40:25;8.88;;;5.93;;
19863;SDS011;10094;48.820;9.226;2023-02-28T07:47:09;10.13;;;5.72;;
19863;SDS011;10094;48.820;9.226;2023-02-28T07:53:51;8.95;;;5.60;;
19863;SDS011;10094;48.820;9.226;2023-02-28T08:00:34;8.68;;;6.22;;
19863;SDS011;10094;48.820;9.226;2023-02-28T08:07:16;8.35;;;5.85;;
19863;SDS011;10094;48.820;9.226;2023-02-28T08:14:00;8.45;;;5.43;;
19863;SDS011;10094;48.820;9.226;2023-02-28T08:20:42;9.52;;;6.78;;
19863;SDS011;10094;48.820;9.226;2023-02-28T08:27:25;7.97;;;6.28;;
19863;SDS011;10094;48.820;9.226;2023-02-28T08:34:08;10.07;;;6.90;;
19863;SDS011;10094;48.820;9.226;2023-02-28T08:40:59;8.80;;;6.70;;
19863;SDS011;10094;48.820;9.226;2023-02-28T08:47:42;10.27;;;6.20;;
19863;SDS011;10094;48.820;9.226;2023-02-28T08:54:25;9.25;;;7.22;;
19863;SDS011;10094;48.820;9.226;2023-02-28T09:01:12;10.52;;;7.20;;
19863;SDS011;10094;48.820;9.226;2023-02-28T09:08:03;10.70;;;7.20;;
19863;SDS011;10094;48.820;9.226;2023-02-28T09:14:45;10.63;;;7.80;;
19863;SDS011;10094;48.820;9.226;2023-02-28T09:21:28;13.32;;;8.35;;
19863;SDS011;10094;48.820;9.226;2023-02-28T09:28:11;10.85;;;7.57;;
19863;SDS011;10094;48.820;9.226;2023-02-28T09:34:53;14.85;;;7.38;;
19863;SDS011;10094;48.820;9.226;2023-02-28T09:41:39;8.93;;;6.82;;
19863;SDS011;10094;48.820;9.226;2023-02-28T09:48:34;10.02;;;7.63;;
19863;SDS011;10094;48.820;9.226;2023-02-28T09:55:26;10.20;;;7.35;;
19863;SDS011;10094;48.820;9.226;2023-02-28T10:09:25;10.07;;;7.90;;
19863;SDS011;10094;48.820;9.226;2023-02-28T10:16:14;12.10;;;7.35;;
19863;SDS011;10094;48.820;9.226;2023-02-28T10:23:04;10.07;;;7.43;;
19863;SDS011;10094;48.820;9.226;2023-02-28T10:30:10;11.25;;;8.07;;
19863;SDS011;10094;48.820;9.226;2023-02-28T10:36:58;10.73;;;8.55;;
19863;SDS011;10094;48.820;9.226;2023-02-28T10:43:48;10.23;;;8.52;;
19863;SDS011;10094;48.820;9.226;2023-02-28T10:57:28;10.10;;;8.63;;
19863;SDS011;10094;48.820;9.226;2023-02-28T11:04:19;10.98;;;8.88;;
19863;SDS011;10094;48.820;9.226;2023-02-28T11:11:11;10.00;;;7.78;;
19863;SDS011;10094;48.820;9.226;2023-02-28T11:17:54;8.70;;;7.80;;
19863;SDS011;10094;48.820;9.226;2023-02-28T11:24:41;9.27;;;7.65;;
19863;SDS011;10094;48.820;9.226;2023-02-28T11:31:25;10.38;;;7.68;;
19863;SDS011;10094;48.820;9.226;2023-02-28T11:38:12;9.10;;;7.90;;
19863;SDS011;10094;48.820;9.226;2023-02-28T12:13:23;8.95;;;7.93;;
19863;SDS011;10094;48.820;9.226;2023-02-28T12:20:22;10.57;;;8.45;;
19863;SDS011;10094;48.820;9.226;2023-02-28T12:27:27;10.05;;;7.53;;
19863;SDS011;10094;48.820;9.226;2023-02-28T12:34:14;9.35;;;7.38;;
19863;SDS011;10094;48.820;9.226;2023-02-28T12:41:03;9.73;;;8.45;;
19863;SDS011;10094;48.820;9.226;2023-02-28T12:47:52;8.95;;;7.68;;
19863;SDS011;10094;48.820;9.226;2023-02-28T13:09:01;7.95;;;7.15;;
19863;SDS011;10094;48.820;9.226;2023-02-28T13:22:50;8.00;;;7.15;;
19863;SDS011;10094;48.820;9.226;2023-02-28T13:29:36;9.30;;;7.85;;
19863;SDS011;10094;48.820;9.226;2023-02-28T13:43:07;9.80;;;7.70;;
19863;SDS011;10094;48.820;9.226;2023-02-28T13:49:50;8.85;;;7.53;;
19863;SDS011;10094;48.820;9.226;2023-02-28T13:56:41;8.50;;;6.90;;
19863;SDS011;10094;48.820;9.226;2023-02-28T14:03:35;8.90;;;7.13;;
19863;SDS011;10094;48.820;9.226;2023-02-28T14:10:27;9.55;;;7.75;;
19863;SDS011;10094;48.820;9.226;2023-02-28T14:17:15;11.52;;;8.07;;
19863;SDS011;10094;48.820;9.226;2023-02-28T14:24:20;8.90;;;7.68;;
19863;SDS011;10094;48.820;9.226;2023-02-28T14:31:15;13.48;;;7.40;;
19863;SDS011;10094;48.820;9.226;2023-02-28T14:38:05;10.10;;;7.60;;
19863;SDS011;10094;48.820;9.226;2023-02-28T14:44:55;8.32;;;6.70;;
19863;SDS011;10094;48.820;9.226;2023-02-28T14:51:38;9.43;;;7.13;;
19863;SDS011;10094;48.820;9.226;2023-02-28T14:58:25;13.43;;;7.88;;
19863;SDS011;10094;48.820;9.226;2023-02-28T15:11:51;11.25;;;7.65;;
19863;SDS011;10094;48.820;9.226;2023-02-28T15:25:37;10.15;;;8.00;;
19863;SDS011;10094;48.820;9.226;2023-02-28T15:32:26;9.30;;;8.27;;
19863;SDS011;10094;48.820;9.226;2023-02-28T15:39:25;9.95;;;8.52;;
19863;SDS011;10094;48.820;9.226;2023-02-28T15:46:12;9.50;;;7.63;;
19863;SDS011;10094;48.820;9.226;2023-02-28T15:52:57;13.60;;;8.32;;
19863;SDS011;10094;48.820;9.226;2023-02-28T15:59:42;12.15;;;8.50;;
19863;SDS011;10094;48.820;9.226;2023-02-28T16:13:20;9.35;;;8.30;;
19863;SDS011;10094;48.820;9.226;2023-02-28T16:20:06;11.60;;;9.43;;
19863;SDS011;10094;48.820;9.226;2023-02-28T16:27:30;10.57;;;8.40;;
19863;SDS011;10094;48.820;9.226;2023-02-28T16:34:14;9.73;;;7.80;;
19863;SDS011;10094;48.820;9.226;2023-02-28T16:40:59;12.27;;;8.15;;
19863;SDS011;10094;48.820;9.226;2023-02-28T16:47:42;10.32;;;8.80;;
19863;SDS011;10094;48.820;9.226;2023-02-28T16:54:24;12.23;;;8.80;;
19863;SDS011;10094;48.820;9.226;2023-02-28T17:01:07;13.02;;;7.60;;
19863;SDS011;10094;48.820;9.226;2023-02-28T17:07:49;11.63;;;8.85;;
19863;SDS011;10094;48.820;9.226;2023-02-28T17:14:32;15.07;;;9.20;;
19863;SDS011;10094;48.820;9.226;2023-02-28T17:21:15;11.40;;;9.63;;
19863;SDS011;10094;48.820;9.226;2023-02-28T17:27:58;14.63;;;9.95;;
19863;SDS011;10094;48.820;9.226;2023-02-28T17:34:40;19.50;;;10.75;;
19863;SDS011;10094;48.820;9.226;2023-02-28T17:41:23;14.43;;;10.32;;
19863;SDS011;10094;48.820;9.226;2023-02-28T17:48:06;14.68;;;9.65;;
19863;SDS011;10094;48.820;9.226;2023-02-28T17:54:50;15.73;;;9.75;;
19863;SDS011;10094;48.820;9.226;2023-02-28T18:01:33;13.38;;;10.27;;
19863;SDS011;10094;48.820;9.226;2023-02-28T18:08:15;18.85;;;11.05;;
19863;SDS011;10094;48.820;9.226;2023-02-28T18:14:58;16.88;;;10.90;;
19863;SDS011;10094;48.820;9.226;2023-02-28T18:21:40;17.98;;;11.48;;
19863;SDS011;10094;48.820;9.226;2023-02-28T18:28:27;16.15;;;11.65;;
19863;SDS011;10094;48.820;9.226;2023-02-28T18:35:09;18.80;;;12.68;;
19863;SDS011;10094;48.820;9.226;2023-02-28T18:41:52;18.77;;;12.32;;
19863;SDS011;10094;48.820;9.226;2023-02-28T18:48:34;19.13;;;12.05;;
19863;SDS011;10094;48.820;9.226;2023-02-28T18:55:17;19.15;;;11.82;;
19863;SDS011;10094;48.820;9.226;2023-02-28T19:01:59;20.92;;;12.68;;
19863;SDS011;10094;48.820;9.226;2023-02-28T19:08:42;21.02;;;13.20;;
19863;SDS011;10094;48.820;9.226;2023-02-28T19:15:24;24.88;;;17.42;;
19863;SDS011;10094;48.820;9.226;2023-02-28T19:22:07;19.52;;;13.85;;
19863;SDS011;10094;48.820;9.226;2023-02-28T19:28:51;21.45;;;14.77;;
19863;SDS011;10094;48.820;9.226;2023-02-28T19:35:33;23.10;;;14.75;;
19863;SDS011;10094;48.820;9.226;2023-02-28T19:42:16;28.30;;;16.00;;
19863;SDS011;10094;48.820;9.226;2023-02-28T19:48:59;22.83;;;14.85;;
19863;SDS011;10094;48.820;9.226;2023-02-28T19:55:42;24.80;;;16.85;;
19863;SDS011;10094;48.820;9.226;2023-02-28T20:02:27;29.75;;;20.30;;
19863;SDS011;10094;48.820;9.226;2023-02-28T20:09:09;27.75;;;18.02;;
19863;SDS011;10094;48.820;9.226;2023-02-28T20:15:51;22.98;;;15.00;;
19863;SDS011;10094;48.820;9.226;2023-02-28T20:22:33;23.10;;;15.38;;
19863;SDS011;10094;48.820;9.226;2023-02-28T20:29:19;21.00;;;13.82;;
19863;SDS011;10094;48.820;9.226;2023-02-28T20:36:01;21.70;;;16.45;;
19863;SDS011;10094;48.820;9.226;2023-02-28T20:42:46;24.83;;;14.95;;
19863;SDS011;10094;48.820;9.226;2023-02-28T20:49:28;25.25;;;15.63;;
19863;SDS011;10094;48.820;9.226;2023-02-28T20:56:12;21.25;;;14.27;;
19863;SDS011;10094;48.820;9.226;2023-02-28T21:02:59;20.45;;;14.20;;
19863;SDS011;10094;48.820;9.226;2023-02-28T21:09:41;22.17;;;13.80;;
19863;SDS011;10094;48.820;9.226;2023-02-28T21:16:24;21.83;;;14.07;;
19863;SDS011;10094;48.820;9.226;2023-02-28T21:23:08;19.58;;;13.82;;
19863;SDS011;10094;48.820;9.226;2023-02-28T21:29:50;22.33;;;14.80;;
19863;SDS011;10094;48.820;9.226;2023-02-28T21:36:37;19.20;;;13.77;;
19863;SDS011;10094;48.820;9.226;2023-02-28T21:43:21;22.40;;;15.13;;
19863;SDS011;10094;48.820;9.226;2023-02-28T21:50:03;21.95;;;13.93;;
19863;SDS011;10094;48.820;9.226;2023-02-28T21:56:46;21.30;;;15.63;;
19863;SDS011;10094;48.820;9.226;2023-02-28T22:03:31;22.35;;;15.63;;
19863;SDS011;10094;48.820;9.226;2023-02-28T22:10:13;25.92;;;16.10;;
19863;SDS011;10094;48.820;9.226;2023-02-28T22:16:56;25.35;;;16.33;;
19863;SDS011;10094;48.820;9.226;2023-02-28T22:23:39;27.42;;;17.38;;
19863;SDS011;10094;48.820;9.226;2023-02-28T22:30:23;27.90;;;18.23;;
19863;SDS011;10094;48.820;9.226;2023-02-28T22:37:05;27.80;;;16.33;;
19863;SDS011;10094;48.820;9.226;2023-02-28T22:43:51;27.83;;;17.88;;
19863;SDS011;10094;48.820;9.226;2023-02-28T22:50:35;25.17;;;17.38;;
19863;SDS011;10094;48.820;9.226;2023-02-28T22:57:18;27.13;;;16.17;;
19863;SDS011;10094;48.820;9.226;2023-02-28T23:04:00;33.50;;;21.30;;
19863;SDS011;10094;48.820;9.226;2023-02-28T23:10:43;27.33;;;15.95;;
19863;SDS011;10094;48.820;9.226;2023-02-28T23:17:25;22.52;;;15.88;;
19863;SDS011;10094;48.820;9.226;2023-02-28T23:24:09;22.83;;;13.68;;
19863;SDS011;10094;48.820;9.226;2023-02-28T23:30:54;27.80;;;14.25;;
19863;SDS011;10094;48.820;9.226;2023-02-28T23:37:37;20.33;;;13.43;;
19863;SDS011;10094;48.820;9.226;2023-02-28T23:44:20;22.10;;;13.55;;
19863;SDS011;10094;48.820;9.226;2023-02-28T23:51:11;22.13;;;13.73;;
19863;SDS011;10094;48.820;9.226;2023-02-28T23:57:55;20.65;;;12.88;;
